• Join FlightAware (Why Join?)
  • Login
  • US Flag 
02:38PM EDT


 

Airport Tracker/Info


-or-


 

Live Flight TrackerFlight Track Log ✈ UCA3599 ✈ 15-Sep-2013 ✈ KBGM - KIAD

Flight Track Log - Related Links

Times and Time Zones

All times are in EDT time to prevent confusion due to time zone crossing. See the UCA3599 flight status page for this flight to view local times or setup timezone preferences in your user account.

Time Position Orientation Groundspeed Altitude Reporting Facility
EDT Latitude Longitude Course Direction KTS MPH feet Rate Location/Type
06:05AM 42.1439 -75.9869 212° Southwest 171 197 3,700  Level New York Center
06:06AM 42.1067 -76.0317 222° Southwest 178 205 5,100 1,380 Climbing New York Center
06:07AM 42.0633 -76.0672 211° Southwest 183 211 6,500 1,200 Climbing New York Center
06:08AM 42.0242 -76.1058 216° Southwest 194 223 7,600 1,200 Climbing New York Center
06:09AM 41.8213 -76.1636 212° Southwest  Level Estimated
06:09AM 41.9783 -76.1525 217° Southwest 194 223 9,000  Level New York Center
06:10AM 41.9331 -76.1878 210° Southwest 194 223 10,200 1,140 Climbing New York Center
06:11AM 41.8836 -76.2200 206° Southwest 200 230 11,300 1,140 Climbing New York Center
06:12AM 41.8386 -76.2469 204° Southwest 200 230 12,500 840 Climbing New York Center
06:14AM 41.7272 -76.3156 205° Southwest 212 244 13,900 420 Climbing New York Center
06:15AM 41.6650 -76.3550 205° Southwest 232 267 13,900  Level New York Center
06:16AM 41.6072 -76.3861 202° Southwest 254 292 14,000  Climbing New York Center
06:17AM 41.5450 -76.4281 207° Southwest 259 298 14,000  Level New York Center
06:18AM 41.4742 -76.4719 205° Southwest 259 298 14,000  Level New York Center
06:19AM 41.4097 -76.5106 204° Southwest 259 298 14,000  Level New York Center
06:20AM 41.3456 -76.5467 203° Southwest 264 304 14,000  Level New York Center
06:21AM 41.2875 -76.5831 205° Southwest 258 297 14,000  Level New York Center
06:22AM 41.2167 -76.6267 205° Southwest 258 297 14,000  Level New York Center
06:23AM 41.1522 -76.6653 204° Southwest 263 303 14,000  Level New York Center
06:24AM 41.0939 -76.7042 207° Southwest 268 308 14,000  Level New York Center
06:25AM 41.0275 -76.7425 204° Southwest 268 308 14,000  Level New York Center
06:26AM 40.9631 -76.7808 204° Southwest 262 302 14,000  Level New York Center
06:27AM 40.8942 -76.8242 205° Southwest 262 302 14,000  Level New York Center
06:28AM 40.8297 -76.8622 204° Southwest 257 296 14,000  Level New York Center
06:29AM 40.7633 -76.8975 202° Southwest 262 302 14,000  Level New York Center
06:30AM 40.6914 -76.9156 191° South 262 302 14,000 -60 Level New York Center
06:31AM 40.6236 -76.9369 193° South 262 302 13,900 -60 Descending New York Center
06:32AM 40.5514 -76.9606 194° South 262 302 13,900  Level New York Center
06:33AM 40.4817 -76.9817 193° South 263 303 13,900  Level New York Center
06:34AM 40.4097 -77.0025 192° South 268 308 13,900 -300 Level New York Center
06:35AM 40.3397 -77.0261 194° South 268 308 13,400 -780 Descending New York Center
06:37AM 40.1833 -77.0667 191° South 291 335 11,700 -900 Descending Potomac TRACON
06:38AM 40.1000 -77.1000 197° South 275 316 10,700 -900 Descending Potomac TRACON
06:39AM 40.0333 -77.1167 191° South 271 312 9,900 -900 Descending Potomac TRACON
06:40AM 39.9667 -77.1333 191° South 268 308 9,100 -480 Descending Potomac TRACON
06:41AM 39.9000 -77.1500 191° South 258 297 9,000 -180 Descending Potomac TRACON
06:41AM 39.8500 -77.1833 207° Southwest 256 295 8,800 -540 Descending Potomac TRACON
06:42AM 39.7833 -77.2333 210° Southwest 266 306 8,100 -420 Descending Potomac TRACON
06:43AM 39.7167 -77.2667 201° Southwest 254 292 8,000 -300 Descending Potomac TRACON
06:44AM 39.6667 -77.3167 218° Southwest 253 291 7,500 -540 Descending Potomac TRACON
06:45AM 39.6000 -77.3500 201° Southwest 255 293 7,000 -660 Descending Potomac TRACON
06:46AM 39.5500 -77.4167 226° Southwest 247 284 6,300 -660 Descending Potomac TRACON
06:47AM 39.5000 -77.4500 207° Southwest 237 273 5,800 -600 Descending Potomac TRACON
06:48AM 39.4333 -77.4333 169° South 247 284 5,100 -420 Descending Potomac TRACON
06:49AM 39.3667 -77.4333 180° South 224 258 5,000 -480 Descending Potomac TRACON
06:50AM 39.3000 -77.4333 180° South 237 273 4,200 -720 Descending Potomac TRACON
06:51AM 39.2333 -77.4333 180° South 235 270 3,600 -600 Descending Potomac TRACON
06:52AM 39.1833 -77.4333 180° South 231 266 3,100 -480 Descending Potomac TRACON
06:53AM 39.1167 -77.4333 180° South 208 239 2,700 -600 Descending Potomac TRACON
06:54AM 39.0667 -77.4333 180° South 179 206 2,000 -540 Descending Potomac TRACON
06:55AM 39.0167 -77.4333 180° South 158 182 1,700 -600 Descending Potomac TRACON
06:56AM 38.9833 -77.4333 180° South 136 157 900 -840 Descending Potomac TRACON